Time;durP1;ratioP1;P1;durP2;ratioP2;P2;SDS_P1;SDS_P2;PMS_P1;PMS_P2;Temp;Humidity;BMP_temperature;BMP_pressure;BME280_temperature;BME280_humidity;BME280_pressure;Samples;Min_cycle;Max_cycle;Signal;HPM_P1;HPM_P2
2020/12/21 00:00:19;;;;;;;25.45;17.20;;;7.90;99.70;;;;;;4994323;28;20517;-88
2020/12/21 00:02:47;;;;;;;26.75;17.75;;;7.90;99.60;;;;;;4966110;28;20412;-88
2020/12/21 00:05:15;;;;;;;25.08;17.58;;;7.80;99.40;;;;;;5013978;28;20444;-87
2020/12/21 00:07:41;;;;;;;24.73;17.52;;;7.80;99.50;;;;;;5013766;28;20128;-85
2020/12/21 00:10:08;;;;;;;24.85;17.20;;;7.90;99.50;;;;;;5013439;28;20532;-87
2020/12/21 00:12:36;;;;;;;24.73;17.67;;;8.00;99.40;;;;;;5013663;28;20192;-87
2020/12/21 00:15:05;;;;;;;25.45;17.67;;;8.10;99.40;;;;;;5013668;28;20049;-87
2020/12/21 00:17:32;;;;;;;26.42;16.90;;;8.10;99.30;;;;;;5013560;28;20123;-87
2020/12/21 00:19:58;;;;;;;23.38;16.63;;;8.10;99.50;;;;;;5014380;28;20140;-87
2020/12/21 00:22:25;;;;;;;24.27;16.55;;;8.10;99.20;;;;;;5013062;28;20124;-87
2020/12/21 00:24:52;;;;;;;26.92;17.77;;;8.10;99.30;;;;;;5013280;28;20080;-87
2020/12/21 00:27:18;;;;;;;27.90;18.77;;;8.00;99.40;;;;;;5013074;28;20120;-87
2020/12/21 00:29:45;;;;;;;27.73;18.13;;;8.10;99.50;;;;;;5013048;28;20077;-87
2020/12/21 00:32:12;;;;;;;30.90;20.08;;;8.10;99.50;;;;;;5013523;28;20069;-87
2020/12/21 00:34:39;;;;;;;27.13;17.80;;;8.10;99.50;;;;;;5013357;28;20133;-86
2020/12/21 00:37:06;;;;;;;20.35;15.63;;;8.20;99.50;;;;;;5013541;28;20166;-87
2020/12/21 00:39:33;;;;;;;23.58;15.27;;;8.30;99.50;;;;;;5013623;28;20057;-87
2020/12/21 00:42:00;;;;;;;25.80;17.90;;;8.10;99.50;;;;;;5013103;28;20464;-88
2020/12/21 00:44:27;;;;;;;25.05;17.08;;;7.90;99.90;;;;;;5013309;28;20137;-88
2020/12/21 00:46:53;;;;;;;24.05;17.15;;;7.80;99.90;;;;;;5013423;28;20411;-86
2020/12/21 00:49:21;;;;;;;27.25;17.10;;;7.70;99.90;;;;;;5013219;28;20085;-87
2020/12/21 00:51:47;;;;;;;25.38;17.42;;;7.70;99.90;;;;;;5013060;28;20046;-88
2020/12/21 00:54:14;;;;;;;24.42;16.58;;;7.70;99.90;;;;;;5012770;28;20533;-87
2020/12/21 00:56:41;;;;;;;25.23;17.30;;;7.90;99.90;;;;;;5012015;28;20089;-87
2020/12/21 00:59:07;;;;;;;25.25;16.60;;;7.80;99.90;;;;;;5013219;28;20144;-87
2020/12/21 01:01:34;;;;;;;26.95;16.95;;;7.90;99.90;;;;;;5005116;28;20058;-86
2020/12/21 01:04:02;;;;;;;24.27;16.45;;;7.90;99.90;;;;;;5011456;28;20407;-86
2020/12/21 01:06:30;;;;;;;24.27;16.88;;;7.90;99.90;;;;;;5013286;28;20050;-88
2020/12/21 01:08:58;;;;;;;23.02;15.98;;;8.00;99.80;;;;;;5012853;28;20129;-87
2020/12/21 01:11:28;;;;;;;22.70;15.88;;;7.90;99.80;;;;;;5013153;28;20438;-88
2020/12/21 01:13:55;;;;;;;24.15;16.90;;;7.80;99.80;;;;;;5012936;28;20049;-87
2020/12/21 01:16:23;;;;;;;23.58;16.50;;;7.70;99.80;;;;;;5012941;28;20132;-87
2020/12/21 01:18:50;;;;;;;22.95;16.83;;;7.70;99.70;;;;;;5016780;28;20133;-88
2020/12/21 01:21:27;;;;;;;25.30;16.33;;;7.70;99.80;;;;;;5016484;28;20146;-88
2020/12/21 01:23:56;;;;;;;26.15;17.27;;;7.80;99.70;;;;;;5016631;28;20180;-88
2020/12/21 01:26:23;;;;;;;22.35;16.00;;;7.70;99.70;;;;;;5016911;28;20136;-88
2020/12/21 01:28:50;;;;;;;23.02;16.02;;;7.70;99.70;;;;;;4999722;28;20137;-88
2020/12/21 01:31:18;;;;;;;24.10;16.67;;;7.70;99.60;;;;;;5016583;28;20114;-89
2020/12/21 01:33:45;;;;;;;23.75;16.33;;;7.60;99.60;;;;;;5016618;28;20060;-88
2020/12/21 01:36:12;;;;;;;24.65;16.80;;;7.60;99.50;;;;;;5016507;28;20057;-88
2020/12/21 01:38:39;;;;;;;25.40;16.55;;;7.50;99.50;;;;;;5016569;28;20236;-89
2020/12/21 01:41:06;;;;;;;24.35;17.23;;;7.50;99.60;;;;;;5016376;28;20593;-88
2020/12/21 01:43:33;;;;;;;21.80;15.93;;;7.50;99.70;;;;;;4998949;28;20451;-88
2020/12/21 01:46:09;;;;;;;25.17;16.40;;;7.60;99.60;;;;;;5016395;28;20084;-89
2020/12/21 01:48:37;;;;;;;23.23;17.02;;;7.50;99.50;;;;;;5016328;28;20144;-88
2020/12/21 01:51:06;;;;;;;23.75;16.95;;;7.50;99.60;;;;;;5016121;28;20128;-88
2020/12/21 01:53:35;;;;;;;23.55;15.90;;;7.50;99.40;;;;;;5015939;28;20080;-88
2020/12/21 01:56:05;;;;;;;23.35;16.48;;;7.60;99.50;;;;;;5016347;28;20153;-89
2020/12/21 01:58:32;;;;;;;22.23;15.65;;;7.60;99.40;;;;;;4998912;28;20144;-87
2020/12/21 02:01:03;;;;;;;24.50;16.33;;;7.60;99.30;;;;;;5016384;28;20080;-88
2020/12/21 02:03:30;;;;;;;21.83;14.98;;;7.60;99.20;;;;;;5018057;28;20184;-87
2020/12/21 02:05:57;;;;;;;18.17;12.50;;;7.70;99.60;;;;;;5018884;28;20235;-89
2020/12/21 02:08:24;;;;;;;18.63;13.52;;;7.70;99.80;;;;;;5018027;28;20133;-87
2020/12/21 02:10:50;;;;;;;16.40;11.35;;;7.80;99.50;;;;;;5016255;28;20475;-87
2020/12/21 02:13:18;;;;;;;16.73;11.27;;;7.80;99.80;;;;;;5015555;28;20127;-87
2020/12/21 02:15:44;;;;;;;16.23;11.23;;;7.80;99.70;;;;;;5015879;28;20482;-87
2020/12/21 02:18:11;;;;;;;26.55;16.02;;;7.90;99.60;;;;;;5015913;28;20128;-88
2020/12/21 02:20:39;;;;;;;18.65;13.00;;;7.90;99.50;;;;;;5015956;28;20145;-88
2020/12/21 02:23:06;;;;;;;18.48;12.38;;;7.90;99.20;;;;;;5015648;28;20054;-87
2020/12/21 02:25:32;;;;;;;18.73;13.05;;;7.90;98.90;;;;;;5015993;28;20543;-87
2020/12/21 02:27:59;;;;;;;21.45;14.48;;;7.90;98.80;;;;;;5014704;28;20137;-88
2020/12/21 02:30:26;;;;;;;20.08;13.13;;;7.50;98.30;;;;;;5014692;28;20502;-88
2020/12/21 02:32:52;;;;;;;18.35;12.90;;;7.40;98.50;;;;;;5015544;28;20058;-88
2020/12/21 02:35:19;;;;;;;19.65;12.82;;;7.40;99.10;;;;;;4998239;28;20137;-88
2020/12/21 02:37:47;;;;;;;17.52;12.57;;;7.40;99.00;;;;;;5015546;28;20136;-87
2020/12/21 02:40:13;;;;;;;22.17;15.40;;;7.40;98.90;;;;;;5015424;28;20052;-88
2020/12/21 02:42:40;;;;;;;18.92;13.80;;;7.30;99.50;;;;;;5015100;28;20538;-88
2020/12/21 02:45:07;;;;;;;20.05;13.73;;;7.40;99.90;;;;;;5015230;28;20084;-87
2020/12/21 02:47:33;;;;;;;19.50;13.95;;;7.40;99.20;;;;;;5015080;28;20125;-88
2020/12/21 02:50:00;;;;;;;19.20;13.32;;;7.40;99.50;;;;;;5015179;28;20136;-87
2020/12/21 02:52:31;;;;;;;19.05;13.10;;;7.40;99.70;;;;;;5014710;28;20132;-87
2020/12/21 02:55:00;;;;;;;21.33;13.35;;;7.30;99.50;;;;;;5015257;28;20058;-88
2020/12/21 02:57:26;;;;;;;19.17;13.05;;;7.30;99.40;;;;;;4998070;28;20076;-87
2020/12/21 02:59:54;;;;;;;19.63;13.60;;;7.40;99.70;;;;;;5014776;28;20510;-86
2020/12/21 03:02:20;;;;;;;20.10;13.30;;;7.30;99.70;;;;;;5013800;28;20495;-86
2020/12/21 03:04:47;;;;;;;18.73;12.60;;;7.30;99.70;;;;;;5014973;28;20133;-86
2020/12/21 03:07:14;;;;;;;16.02;12.23;;;7.30;99.50;;;;;;5014775;28;20129;-86
2020/12/21 03:09:40;;;;;;;18.80;12.70;;;7.30;99.60;;;;;;5014905;28;20136;-87
2020/12/21 03:12:08;;;;;;;19.00;13.18;;;7.20;99.10;;;;;;5014390;28;20125;-87
2020/12/21 03:14:34;;;;;;;17.33;12.55;;;7.30;98.90;;;;;;5014278;28;20140;-86
2020/12/21 03:17:03;;;;;;;16.92;11.75;;;7.20;98.80;;;;;;5014473;28;20137;-86
2020/12/21 03:19:30;;;;;;;21.02;13.02;;;7.20;98.60;;;;;;5014362;28;20092;-86
2020/12/21 03:21:56;;;;;;;16.48;11.98;;;7.10;98.50;;;;;;5014220;28;20057;-86
2020/12/21 03:24:23;;;;;;;18.05;12.05;;;7.00;98.60;;;;;;5013407;28;20129;-86
2020/12/21 03:26:50;;;;;;;15.48;11.75;;;7.10;98.40;;;;;;5014360;28;20129;-88
2020/12/21 03:29:17;;;;;;;17.35;11.90;;;7.00;98.80;;;;;;5014420;28;20089;-88
2020/12/21 03:31:44;;;;;;;17.80;11.15;;;6.70;98.80;;;;;;5014260;28;20120;-88
2020/12/21 03:34:13;;;;;;;17.10;11.25;;;6.60;99.20;;;;;;5014129;28;20140;-89
2020/12/21 03:36:40;;;;;;;15.32;10.73;;;6.60;99.60;;;;;;5014526;28;20068;-89
2020/12/21 03:39:07;;;;;;;17.45;11.95;;;6.50;99.90;;;;;;5014354;28;20140;-88
2020/12/21 03:41:34;;;;;;;17.25;11.40;;;6.60;99.90;;;;;;5013638;28;20129;-89
2020/12/21 03:44:01;;;;;;;15.82;10.57;;;6.50;99.10;;;;;;5013914;28;20500;-88
2020/12/21 03:46:28;;;;;;;14.32;10.23;;;6.50;99.00;;;;;;5014377;28;20124;-89
2020/12/21 03:48:55;;;;;;;22.90;12.65;;;6.40;99.40;;;;;;5014345;28;20566;-89
2020/12/21 03:51:22;;;;;;;22.50;12.60;;;6.30;99.90;;;;;;5014330;28;20456;-88
2020/12/21 03:53:48;;;;;;;20.55;12.32;;;6.30;99.90;;;;;;5016716;28;20089;-90
2020/12/21 03:56:15;;;;;;;24.52;14.77;;;6.10;99.70;;;;;;5018260;28;20062;-91
2020/12/21 03:58:42;;;;;;;23.05;14.55;;;6.10;99.90;;;;;;5014582;28;20061;-90
2020/12/21 04:01:09;;;;;;;22.20;14.52;;;6.10;99.90;;;;;;4997335;28;20077;-89
2020/12/21 04:03:38;;;;;;;22.35;13.80;;;6.10;99.90;;;;;;4996841;28;20042;-88
2020/12/21 04:06:04;;;;;;;19.27;13.32;;;6.00;99.90;;;;;;5013703;28;20426;-89
2020/12/21 04:08:31;;;;;;;20.90;13.75;;;6.10;99.80;;;;;;5013472;28;20073;-88
2020/12/21 04:10:59;;;;;;;19.38;12.70;;;6.10;99.60;;;;;;5014001;28;20464;-90
2020/12/21 04:13:26;;;;;;;17.50;11.80;;;6.00;99.40;;;;;;5014012;28;20432;-91
2020/12/21 04:15:53;;;;;;;16.23;11.82;;;6.10;99.70;;;;;;5013925;28;20054;-89
2020/12/21 04:18:20;;;;;;;13.80;10.30;;;6.00;99.40;;;;;;4996357;28;20056;-88
2020/12/21 04:20:48;;;;;;;12.13;9.73;;;6.00;99.60;;;;;;5013551;28;20136;-87
2020/12/21 04:23:15;;;;;;;13.90;10.52;;;5.90;99.30;;;;;;5013585;28;20072;-89
2020/12/21 04:25:42;;;;;;;15.18;11.00;;;5.90;99.30;;;;;;5013525;28;20107;-90
2020/12/21 04:28:08;;;;;;;16.30;10.95;;;5.90;99.10;;;;;;5013509;28;20144;-91
2020/12/21 04:30:35;;;;;;;16.70;11.18;;;5.70;98.90;;;;;;4980644;28;20132;-91
2020/12/21 04:33:02;;;;;;;15.43;10.90;;;5.70;99.00;;;;;;5013587;28;20129;-91
2020/12/21 04:35:29;;;;;;;12.75;10.00;;;5.60;99.40;;;;;;5013451;28;20077;-90
2020/12/21 04:37:56;;;;;;;12.80;9.95;;;5.70;99.40;;;;;;5013278;28;20103;-91
2020/12/21 04:40:24;;;;;;;12.55;9.52;;;5.70;99.30;;;;;;5013832;28;20456;-90
2020/12/21 04:42:51;;;;;;;12.50;9.18;;;5.70;99.20;;;;;;5013445;28;20192;-90
2020/12/21 04:45:19;;;;;;;13.38;9.95;;;5.70;98.90;;;;;;5013523;28;20046;-90
2020/12/21 04:47:47;;;;;;;12.73;9.30;;;5.70;98.90;;;;;;4993998;28;20050;-88
2020/12/21 04:50:17;;;;;;;12.30;9.55;;;5.80;99.00;;;;;;4993891;28;20137;-89
2020/12/21 04:52:50;;;;;;;13.02;9.25;;;5.80;99.10;;;;;;4999496;28;20046;-87
2020/12/21 04:55:20;;;;;;;15.05;10.20;;;5.90;98.90;;;;;;5007355;28;20133;-89
2020/12/21 04:57:58;;;;;;;13.30;10.07;;;5.90;98.20;;;;;;5017278;28;20131;-89
2020/12/21 05:00:27;;;;;;;13.65;9.60;;;5.80;98.10;;;;;;4997581;28;20129;-89
2020/12/21 05:02:54;;;;;;;13.90;9.68;;;5.70;98.00;;;;;;5002916;28;20132;-90
2020/12/21 05:05:32;;;;;;;11.77;8.88;;;5.60;98.10;;;;;;5017632;28;20136;-90
2020/12/21 05:08:07;;;;;;;11.82;8.68;;;5.60;97.90;;;;;;5017292;28;20137;-91
2020/12/21 05:10:34;;;;;;;12.10;8.88;;;5.50;97.70;;;;;;5017910;28;20085;-90
2020/12/21 05:13:03;;;;;;;11.98;8.98;;;5.30;98.20;;;;;;5017455;28;20546;-90
2020/12/21 05:15:30;;;;;;;12.30;9.25;;;5.30;98.30;;;;;;5018053;28;20410;-91
2020/12/21 05:18:10;;;;;;;9.32;7.38;;;5.20;98.40;;;;;;5018163;28;20136;-89
2020/12/21 05:20:39;;;;;;;10.80;7.53;;;5.10;98.50;;;;;;5017601;28;20058;-91
2020/12/21 05:23:14;;;;;;;10.30;7.82;;;4.90;98.70;;;;;;5018004;28;20110;-90
2020/12/21 05:25:42;;;;;;;12.60;8.98;;;4.80;99.10;;;;;;5017619;28;20487;-89
2020/12/21 05:28:15;;;;;;;10.85;8.57;;;4.80;99.70;;;;;;5017448;28;20081;-90
2020/12/21 05:30:55;;;;;;;15.48;8.75;;;4.90;99.80;;;;;;5016875;28;20046;-89
2020/12/21 05:33:22;;;;;;;10.23;7.47;;;4.90;99.60;;;;;;5000497;28;20045;-88
2020/12/21 05:35:52;;;;;;;15.20;8.65;;;4.90;99.30;;;;;;5029747;28;20076;-84
2020/12/21 06:09:51;;;;;;;9.15;7.75;;;4.10;99.90;;;;;;5949376;23;23218;-84
2020/12/21 06:12:22;;;;;;;10.07;7.72;;;4.30;99.90;;;;;;5012021;28;20558;-91
2020/12/21 06:14:54;;;;;;;10.63;7.97;;;4.50;99.90;;;;;;5011857;28;20140;-89
2020/12/21 06:17:21;;;;;;;10.50;8.23;;;4.60;99.90;;;;;;5015297;28;20046;-88
2020/12/21 06:19:49;;;;;;;11.52;8.75;;;4.60;99.20;;;;;;5016310;28;20129;-88
2020/12/21 06:22:24;;;;;;;10.65;8.35;;;4.60;99.20;;;;;;5011592;28;20137;-87
2020/12/21 06:24:51;;;;;;;9.93;8.13;;;4.70;99.70;;;;;;4998038;28;20047;-87
2020/12/21 06:27:18;;;;;;;11.10;8.20;;;4.60;99.50;;;;;;5014901;28;20046;-88
2020/12/21 06:29:45;;;;;;;10.77;8.20;;;4.70;98.80;;;;;;5015058;28;20129;-89
2020/12/21 06:32:12;;;;;;;9.93;8.00;;;4.70;98.30;;;;;;5015877;28;20133;-89
2020/12/21 06:34:41;;;;;;;9.82;7.63;;;4.60;98.30;;;;;;5016167;28;20045;-88
2020/12/21 06:37:16;;;;;;;9.93;7.60;;;4.50;98.80;;;;;;5013198;28;20053;-88
2020/12/21 06:39:43;;;;;;;10.07;8.13;;;4.60;99.20;;;;;;5010513;28;20077;-89
2020/12/21 06:42:12;;;;;;;11.27;8.07;;;4.70;99.10;;;;;;5009093;28;20077;-88
2020/12/21 06:44:41;;;;;;;9.77;7.50;;;4.70;99.00;;;;;;5015219;28;20132;-89
2020/12/21 06:47:09;;;;;;;9.65;7.75;;;4.80;98.90;;;;;;5014956;28;20052;-89
2020/12/21 06:49:37;;;;;;;11.38;8.65;;;4.80;98.30;;;;;;5014810;28;20468;-90
2020/12/21 06:52:04;;;;;;;9.13;7.50;;;4.90;98.30;;;;;;5015913;28;20057;-90
2020/12/21 06:54:32;;;;;;;11.05;8.30;;;4.80;98.30;;;;;;5011769;28;20050;-87
2020/12/21 06:57:00;;;;;;;12.18;8.77;;;4.70;97.90;;;;;;5017062;28;20442;-87
2020/12/21 06:59:33;;;;;;;10.60;8.30;;;4.60;98.00;;;;;;5006985;28;20105;-86
2020/12/21 07:01:59;;;;;;;12.05;8.13;;;4.50;98.40;;;;;;4995556;28;20480;-89
2020/12/21 07:04:28;;;;;;;11.60;7.88;;;4.40;98.90;;;;;;5015509;28;20053;-89
2020/12/21 07:06:57;;;;;;;10.35;7.00;;;4.50;98.90;;;;;;5010537;28;20050;-87
2020/12/21 07:09:27;;;;;;;11.07;7.68;;;4.60;98.10;;;;;;5012733;28;20133;-88
2020/12/21 07:11:57;;;;;;;10.02;7.47;;;4.60;98.40;;;;;;4980057;28;20046;-88
2020/12/21 07:14:26;;;;;;;10.13;7.63;;;4.60;98.70;;;;;;4990176;28;20046;-89
2020/12/21 07:17:03;;;;;;;10.65;7.45;;;4.70;98.80;;;;;;4976787;28;20057;-88
2020/12/21 07:19:31;;;;;;;11.27;7.65;;;4.70;98.70;;;;;;4976556;28;20129;-89
2020/12/21 07:21:58;;;;;;;11.82;8.23;;;4.70;98.70;;;;;;4983066;28;20058;-90
2020/12/21 07:24:25;;;;;;;12.07;7.78;;;4.80;98.70;;;;;;4984238;28;20102;-89
2020/12/21 07:26:53;;;;;;;11.63;8.07;;;4.80;98.60;;;;;;4986195;28;20074;-89
2020/12/21 07:29:21;;;;;;;11.40;7.63;;;4.80;98.70;;;;;;4998589;28;20133;-89
2020/12/21 07:31:48;;;;;;;15.10;8.63;;;4.90;98.50;;;;;;5000859;28;20085;-91
2020/12/21 07:34:15;;;;;;;19.52;8.40;;;4.90;98.50;;;;;;5003518;28;20074;-89
2020/12/21 07:36:43;;;;;;;20.20;7.90;;;4.60;98.80;;;;;;5012492;28;20045;-89
2020/12/21 07:39:12;;;;;;;20.85;8.02;;;4.60;99.10;;;;;;4976194;28;20074;-89
2020/12/21 07:41:41;;;;;;;15.35;7.80;;;4.60;99.20;;;;;;4980330;28;20157;-91
2020/12/21 07:44:13;;;;;;;18.05;7.80;;;4.70;98.50;;;;;;4992265;28;20086;-89
2020/12/21 08:01:35;;;;;;;16.42;11.02;;;4.20;99.00;;;;;;5098756;23;20408;-89
2020/12/21 08:04:22;;;;;;;19.27;11.57;;;4.30;99.70;;;;;;4979249;28;20116;-90
2020/12/21 08:06:50;;;;;;;25.10;14.13;;;4.20;99.80;;;;;;5006272;28;20128;-88
2020/12/21 08:09:18;;;;;;;23.33;14.15;;;4.30;99.80;;;;;;5014059;28;20050;-95
2020/12/21 08:11:46;;;;;;;21.67;12.80;;;4.40;99.60;;;;;;5013842;28;20042;-95
2020/12/21 08:17:23;;;;;;;16.10;11.00;;;4.50;99.50;;;;;;5013205;28;20053;-92
2020/12/21 08:20:07;;;;;;;15.95;9.82;;;4.60;99.30;;;;;;5006453;28;20104;-90
2020/12/21 08:22:37;;;;;;;15.18;10.40;;;4.70;99.00;;;;;;5012597;28;20056;-91
2020/12/21 08:25:07;;;;;;;15.23;10.18;;;4.70;98.80;;;;;;5006225;28;20491;-91
2020/12/21 08:27:33;;;;;;;16.98;10.00;;;4.80;98.90;;;;;;5014617;28;20084;-91
2020/12/21 08:30:09;;;;;;;16.92;10.27;;;4.80;98.90;;;;;;5014312;28;20136;-91
2020/12/21 08:32:36;;;;;;;15.05;9.63;;;4.90;99.00;;;;;;5014469;28;20084;-92
2020/12/21 08:35:05;;;;;;;15.77;10.02;;;4.80;98.40;;;;;;5014344;28;20563;-91
2020/12/21 08:37:32;;;;;;;13.75;9.45;;;4.90;98.60;;;;;;5014564;28;20140;-92
2020/12/21 08:45:48;;;;;;;14.27;9.55;;;4.70;98.80;;;;;;5416892;23;20058;-89
2020/12/21 08:51:41;;;;;;;14.23;9.35;;;4.50;99.20;;;;;;5180626;23;20420;-92
2020/12/21 08:54:12;;;;;;;13.57;9.05;;;4.50;99.20;;;;;;4978725;28;20534;-92
2020/12/21 08:56:38;;;;;;;10.60;7.57;;;4.60;99.50;;;;;;4994917;28;20388;-91
2020/12/21 08:59:05;;;;;;;13.13;8.77;;;4.60;99.40;;;;;;4993789;28;20128;-90
2020/12/21 09:01:32;;;;;;;11.82;7.82;;;4.70;99.50;;;;;;4993670;28;20141;-80
2020/12/21 09:03:58;;;;;;;12.63;8.02;;;4.70;99.30;;;;;;4993402;28;20047;-81
2020/12/21 09:06:25;;;;;;;10.10;7.40;;;4.70;99.30;;;;;;4993105;28;20137;-81
2020/12/21 09:08:52;;;;;;;10.43;6.82;;;4.90;99.30;;;;;;4993420;28;20134;-82
2020/12/21 09:11:20;;;;;;;10.73;7.35;;;4.90;99.40;;;;;;4992883;28;20137;-80
2020/12/21 09:13:48;;;;;;;11.77;7.70;;;5.00;99.40;;;;;;4991072;28;20144;-82
2020/12/21 09:16:19;;;;;;;10.63;7.32;;;5.00;99.30;;;;;;4993233;28;20452;-83
2020/12/21 09:18:46;;;;;;;9.15;6.80;;;5.10;99.20;;;;;;4992007;28;20121;-86
2020/12/21 09:21:22;;;;;;;8.50;6.60;;;5.20;99.20;;;;;;4991591;28;20081;-85
2020/12/21 09:23:50;;;;;;;7.78;5.65;;;5.30;99.30;;;;;;4989457;28;20137;-86
2020/12/21 09:26:18;;;;;;;7.55;5.47;;;5.40;99.10;;;;;;4974758;28;20138;-86
2020/12/21 09:28:45;;;;;;;8.15;5.55;;;5.40;99.00;;;;;;4978717;28;20185;-86
2020/12/21 09:31:13;;;;;;;10.43;6.88;;;5.50;99.00;;;;;;4992845;28;20077;-87
2020/12/21 09:33:40;;;;;;;13.05;7.38;;;5.60;99.10;;;;;;4976214;28;20137;-87
2020/12/21 09:36:07;;;;;;;11.88;7.78;;;5.70;99.10;;;;;;4975497;28;20145;-87
2020/12/21 09:38:34;;;;;;;12.00;7.85;;;5.80;98.90;;;;;;4977354;28;20157;-87
2020/12/21 09:41:01;;;;;;;12.50;8.50;;;5.80;98.80;;;;;;4979021;28;20047;-87
2020/12/21 09:43:30;;;;;;;11.82;8.48;;;5.90;98.90;;;;;;4996297;28;20133;-87
2020/12/21 09:45:56;;;;;;;12.18;8.05;;;5.90;98.90;;;;;;4996188;28;20085;-87
2020/12/21 09:48:24;;;;;;;11.38;7.53;;;5.90;99.00;;;;;;4996440;28;20060;-87
2020/12/21 09:50:51;;;;;;;10.23;7.40;;;5.90;99.00;;;;;;4996070;28;20050;-86
2020/12/21 09:53:18;;;;;;;9.98;7.18;;;6.00;98.90;;;;;;4996419;28;20137;-87
2020/12/21 09:55:45;;;;;;;10.70;6.85;;;6.00;99.10;;;;;;4995691;28;20042;-82
2020/12/21 09:58:11;;;;;;;11.63;6.90;;;6.10;99.10;;;;;;4995694;28;20125;-85
2020/12/21 10:00:39;;;;;;;9.38;6.50;;;6.20;99.20;;;;;;5000988;28;20133;-86
2020/12/21 10:03:05;;;;;;;10.48;6.75;;;6.20;99.10;;;;;;4997028;28;20132;-81
2020/12/21 10:05:32;;;;;;;10.02;7.10;;;6.30;99.00;;;;;;4995726;28;20138;-83
2020/12/21 10:07:59;;;;;;;12.10;7.05;;;6.20;98.80;;;;;;4996221;28;20136;-90
2020/12/21 10:10:25;;;;;;;10.25;7.50;;;6.30;99.00;;;;;;4996362;28;20051;-91
2020/12/21 10:12:52;;;;;;;9.32;6.70;;;6.30;99.10;;;;;;4996396;28;20600;-88
2020/12/21 10:15:18;;;;;;;9.90;7.22;;;6.30;99.10;;;;;;4996197;28;20435;-89
2020/12/21 10:17:46;;;;;;;9.70;6.95;;;6.30;99.10;;;;;;4996001;28;20138;-88
2020/12/21 10:20:15;;;;;;;11.90;7.22;;;6.40;99.10;;;;;;4995953;28;20510;-89
2020/12/21 10:22:41;;;;;;;8.93;6.70;;;6.40;99.20;;;;;;4996267;28;20042;-90
2020/12/21 10:25:08;;;;;;;9.75;6.25;;;6.40;99.30;;;;;;4995716;28;20546;-90
2020/12/21 10:27:35;;;;;;;9.35;6.80;;;6.40;99.40;;;;;;4996906;28;20138;-90
2020/12/21 10:30:02;;;;;;;9.07;6.30;;;6.30;99.40;;;;;;4996688;28;20100;-91
2020/12/21 10:32:28;;;;;;;7.97;6.35;;;6.30;99.50;;;;;;4997532;28;20104;-91
2020/12/21 10:34:56;;;;;;;9.55;6.65;;;6.30;99.70;;;;;;5000297;28;20065;-87
2020/12/21 10:37:24;;;;;;;11.25;7.72;;;6.30;99.70;;;;;;4998115;28;20082;-91
2020/12/21 10:39:50;;;;;;;10.50;6.93;;;6.40;99.70;;;;;;5000851;28;20136;-91
2020/12/21 10:42:17;;;;;;;10.35;7.07;;;6.40;99.90;;;;;;4985385;28;20114;-92
2020/12/21 10:44:44;;;;;;;13.00;6.78;;;6.40;99.80;;;;;;5000490;28;20101;-93
2020/12/21 10:47:11;;;;;;;9.10;7.00;;;6.50;99.80;;;;;;4967432;28;20046;-91
2020/12/21 10:49:38;;;;;;;11.95;8.15;;;6.50;99.70;;;;;;4964990;28;20042;-92
2020/12/21 10:52:05;;;;;;;10.88;8.25;;;6.60;99.80;;;;;;4996189;28;20141;-90
2020/12/21 10:54:32;;;;;;;10.38;7.47;;;6.70;99.90;;;;;;4996638;28;20060;-90
2020/12/21 10:57:02;;;;;;;9.25;7.10;;;6.70;99.90;;;;;;5001299;28;20153;-90
2020/12/21 10:59:29;;;;;;;10.05;7.18;;;6.80;99.90;;;;;;5000966;28;20387;-90
2020/12/21 11:01:56;;;;;;;9.05;6.80;;;6.80;99.80;;;;;;4996207;28;20491;-90
2020/12/21 11:04:22;;;;;;;12.65;7.32;;;6.90;99.70;;;;;;4978943;28;20133;-91
2020/12/21 11:06:49;;;;;;;10.10;7.07;;;6.90;99.60;;;;;;4995629;28;20468;-88
2020/12/21 11:09:16;;;;;;;9.57;7.28;;;6.90;99.60;;;;;;4995514;28;20503;-92
2020/12/21 11:11:43;;;;;;;12.40;7.45;;;7.00;99.60;;;;;;5000754;28;20433;-90
2020/12/21 11:14:11;;;;;;;11.13;7.78;;;6.90;99.80;;;;;;4997390;28;20074;-93
2020/12/21 11:16:38;;;;;;;14.93;7.68;;;6.90;99.60;;;;;;4995891;28;20085;-92
2020/12/21 11:19:04;;;;;;;10.23;7.30;;;6.90;99.70;;;;;;5005985;28;20468;-92
2020/12/21 11:21:37;;;;;;;10.73;7.95;;;6.90;99.80;;;;;;4999560;28;20133;-92
2020/12/21 11:24:04;;;;;;;12.27;7.32;;;6.90;99.90;;;;;;4995615;28;20060;-91
2020/12/21 11:26:33;;;;;;;10.23;7.60;;;6.90;99.80;;;;;;4996766;28;20506;-91
2020/12/21 11:28:59;;;;;;;10.63;7.53;;;6.90;99.80;;;;;;4981639;28;20046;-91
2020/12/21 11:31:29;;;;;;;10.80;7.55;;;7.00;99.90;;;;;;5003182;28;20082;-91
2020/12/21 11:33:56;;;;;;;10.75;7.55;;;7.00;99.90;;;;;;5005624;28;20056;-91
2020/12/21 11:36:23;;;;;;;12.90;8.18;;;7.10;99.90;;;;;;4981040;28;20117;-91
2020/12/21 11:38:49;;;;;;;10.43;7.25;;;7.10;99.90;;;;;;4977391;28;20412;-90
2020/12/21 11:41:16;;;;;;;10.77;7.70;;;7.20;99.90;;;;;;4978457;28;20129;-91
2020/12/21 11:43:44;;;;;;;11.05;7.45;;;7.20;99.90;;;;;;4995377;28;20455;-92
2020/12/21 11:46:12;;;;;;;11.05;7.65;;;7.30;99.90;;;;;;4962747;28;20219;-92
2020/12/21 11:48:39;;;;;;;10.38;7.18;;;7.40;99.90;;;;;;4959315;28;20082;-92
2020/12/21 11:51:06;;;;;;;11.32;7.45;;;7.30;99.90;;;;;;4960230;28;20471;-92
2020/12/21 11:53:33;;;;;;;11.90;8.20;;;7.40;99.90;;;;;;4975420;28;20181;-92
2020/12/21 11:56:00;;;;;;;10.63;7.28;;;7.30;99.90;;;;;;4977024;28;20055;-92
2020/12/21 11:58:26;;;;;;;12.63;7.88;;;7.20;99.90;;;;;;4984832;28;20042;-92
2020/12/21 12:00:54;;;;;;;10.95;7.43;;;7.30;99.90;;;;;;4996819;28;20078;-92
2020/12/21 12:03:21;;;;;;;12.43;7.20;;;7.30;99.90;;;;;;4963581;28;20090;-92
2020/12/21 12:05:48;;;;;;;29.52;13.63;;;7.40;99.90;;;;;;5003035;28;20034;-91
2020/12/21 12:08:15;;;;;;;17.17;9.80;;;7.50;99.80;;;;;;4996153;28;20129;-93
2020/12/21 12:10:41;;;;;;;13.40;9.43;;;7.40;99.70;;;;;;4994245;28;20086;-93
2020/12/21 12:13:08;;;;;;;12.57;8.40;;;7.70;99.70;;;;;;4994724;28;20132;-92
2020/12/21 12:15:35;;;;;;;12.40;8.02;;;7.70;99.30;;;;;;4995062;28;20082;-92
2020/12/21 12:18:03;;;;;;;11.40;7.55;;;7.80;99.60;;;;;;4994322;28;20050;-93
2020/12/21 12:20:30;;;;;;;12.18;7.63;;;8.00;99.10;;;;;;4994900;28;20137;-93
2020/12/21 12:22:57;;;;;;;11.85;8.07;;;7.90;98.90;;;;;;4993592;28;20178;-92
2020/12/21 12:25:25;;;;;;;12.25;7.22;;;8.00;98.90;;;;;;4995102;28;20137;-92
2020/12/21 12:27:51;;;;;;;9.98;6.75;;;8.00;98.90;;;;;;4994358;28;20145;-92
2020/12/21 12:30:19;;;;;;;11.95;7.28;;;8.10;98.80;;;;;;4994791;28;20085;-92
2020/12/21 12:32:46;;;;;;;12.00;7.60;;;8.10;98.90;;;;;;4994841;28;20156;-92
2020/12/21 12:35:14;;;;;;;10.30;6.40;;;8.10;99.00;;;;;;5003054;28;20053;-92
2020/12/21 12:37:40;;;;;;;9.75;5.68;;;8.20;98.90;;;;;;5004926;28;20042;-92
2020/12/21 12:40:07;;;;;;;8.23;4.68;;;8.20;98.80;;;;;;5004423;28;20082;-91
2020/12/21 12:42:34;;;;;;;7.90;5.07;;;8.40;98.10;;;;;;4997782;28;20073;-91
2020/12/21 12:45:01;;;;;;;8.15;4.70;;;8.20;98.00;;;;;;4993036;28;20042;-93
2020/12/21 12:47:27;;;;;;;7.90;5.00;;;8.50;97.90;;;;;;5000950;28;20082;-92
2020/12/21 12:49:54;;;;;;;7.88;4.25;;;8.50;98.00;;;;;;5002077;28;20082;-89
2020/12/21 12:52:21;;;;;;;10.07;5.00;;;8.60;97.90;;;;;;5000398;28;20072;-92
2020/12/21 12:54:49;;;;;;;8.20;4.32;;;8.70;98.10;;;;;;4976678;28;20047;-91
2020/12/21 12:57:19;;;;;;;9.98;4.57;;;8.70;97.60;;;;;;4991843;28;20047;-93
2020/12/21 12:59:45;;;;;;;8.02;4.40;;;8.70;97.50;;;;;;4993450;28;20085;-95
2020/12/21 13:02:12;;;;;;;9.65;4.60;;;8.80;97.30;;;;;;4993407;28;21718;-87
2020/12/21 13:04:39;;;;;;;10.57;5.53;;;8.80;97.80;;;;;;4993541;28;20112;-92
2020/12/21 13:07:05;;;;;;;12.40;6.88;;;8.90;98.20;;;;;;4993558;28;20129;-91
2020/12/21 13:09:33;;;;;;;12.68;6.85;;;8.80;98.10;;;;;;4994711;28;20141;-92
2020/12/21 13:12:00;;;;;;;12.35;7.13;;;8.60;98.40;;;;;;4992796;28;20088;-86
2020/12/21 13:14:26;;;;;;;13.00;7.40;;;8.80;98.60;;;;;;4995823;28;20054;-87
2020/12/21 13:16:53;;;;;;;10.65;6.40;;;9.00;99.40;;;;;;4997472;28;20142;-92
2020/12/21 13:19:19;;;;;;;10.82;6.95;;;9.30;98.40;;;;;;4990805;28;20163;-88
2020/12/21 13:21:46;;;;;;;9.93;6.40;;;9.40;97.70;;;;;;5005567;28;20118;-87
2020/12/21 13:24:13;;;;;;;10.60;6.47;;;9.30;97.40;;;;;;5000850;28;20092;-88
2020/12/21 13:26:41;;;;;;;11.38;6.20;;;9.40;97.00;;;;;;4998813;28;20137;-89
2020/12/21 13:29:07;;;;;;;10.20;6.45;;;9.40;97.00;;;;;;4998425;28;20057;-90
2020/12/21 13:31:34;;;;;;;9.98;6.40;;;9.50;97.20;;;;;;4998562;28;20077;-90
2020/12/21 13:34:01;;;;;;;11.50;6.88;;;9.20;97.20;;;;;;4998789;28;20078;-91
2020/12/21 13:36:27;;;;;;;25.55;13.60;;;9.20;97.20;;;;;;4998607;28;20580;-90
2020/12/21 13:38:54;;;;;;;15.57;9.02;;;9.40;97.50;;;;;;4998544;28;20058;-91
2020/12/21 13:41:21;;;;;;;13.07;7.60;;;9.40;97.70;;;;;;4998776;28;20104;-85
2020/12/21 13:43:48;;;;;;;15.15;8.27;;;9.20;97.80;;;;;;4998207;28;20050;-88